Time;durP1;ratioP1;P1;durP2;ratioP2;P2;SDS_P1;SDS_P2;PMS_P1;PMS_P2;Temp;Humidity;BMP_temperature;BMP_pressure;BME280_temperature;BME280_humidity;BME280_pressure;Samples;Min_cycle;Max_cycle;Signal;HPM_P1;HPM_P2
2022/02/21 00:02:02;;;;;;;4.60;2.30;;;;;;;8.27;57.23;93875.06;5000153;28;20017;-77
2022/02/21 00:04:28;;;;;;;5.07;2.38;;;;;;;8.39;56.98;93854.13;4993164;28;20134;-78
2022/02/21 00:06:55;;;;;;;4.70;1.98;;;;;;;8.67;56.94;93891.19;5000342;28;20519;-77
2022/02/21 00:09:20;;;;;;;4.82;2.47;;;;;;;8.74;56.41;93871.13;5008563;28;20121;-77
2022/02/21 00:11:46;;;;;;;3.47;2.30;;;;;;;8.85;56.02;93869.03;5001888;28;20044;-78
2022/02/21 00:14:11;;;;;;;4.57;2.08;;;;;;;8.92;55.89;93866.75;4997377;28;20028;-78
2022/02/21 00:16:37;;;;;;;3.63;2.15;;;;;;;9.01;55.46;93844.50;5006728;28;20522;-77
2022/02/21 00:19:03;;;;;;;4.38;2.38;;;;;;;9.38;54.95;93888.50;5003623;28;20045;-77
2022/02/21 00:21:29;;;;;;;5.45;3.97;;;;;;;9.31;55.20;93893.44;5001743;28;20038;-77
2022/02/21 00:23:55;;;;;;;4.28;2.33;;;;;;;9.37;54.98;93894.88;5007723;28;20633;-77
2022/02/21 00:26:21;;;;;;;3.50;2.00;;;;;;;9.30;54.90;93857.34;5003647;28;20049;-77
2022/02/21 00:28:48;;;;;;;3.78;2.25;;;;;;;9.67;54.14;93887.25;4988046;28;20088;-77
2022/02/21 00:31:14;;;;;;;4.40;2.60;;;;;;;9.46;53.69;93868.38;5004394;28;20037;-77
2022/02/21 00:33:39;;;;;;;3.20;2.47;;;;;;;9.63;54.11;93883.63;4999550;28;20030;-78
2022/02/21 00:36:05;;;;;;;4.72;3.42;;;;;;;9.73;53.71;93870.84;4998918;28;20056;-78
2022/02/21 00:38:31;;;;;;;3.08;2.50;;;;;;;9.79;53.68;93866.97;5004206;28;20038;-77
2022/02/21 00:40:56;;;;;;;3.80;2.72;;;;;;;9.96;53.43;93858.31;5001601;28;20033;-79
2022/02/21 00:43:22;;;;;;;4.85;3.15;;;;;;;10.01;52.73;93844.09;5003208;28;20029;-77
2022/02/21 00:45:47;;;;;;;5.35;3.70;;;;;;;10.02;52.15;93850.97;4996191;28;20108;-78
2022/02/21 00:48:13;;;;;;;5.88;2.53;;;;;;;9.81;52.83;93826.84;5004299;28;20053;-78
2022/02/21 00:50:38;;;;;;;5.25;3.05;;;;;;;10.07;52.57;93848.97;5000881;28;20038;-78
2022/02/21 00:53:04;;;;;;;4.10;2.20;;;;;;;10.07;52.53;93848.97;4999618;28;20030;-77
2022/02/21 00:55:30;;;;;;;3.80;1.90;;;;;;;9.78;52.43;93838.09;5003354;28;20030;-78
2022/02/21 00:57:56;;;;;;;4.57;2.20;;;;;;;9.69;52.47;93827.41;5003591;28;20517;-78
2022/02/21 01:00:22;;;;;;;2.85;2.58;;;;;;;9.41;53.29;93842.75;5001608;28;20412;-79
2022/02/21 01:02:49;;;;;;;6.63;2.92;;;;;;;9.63;52.66;93814.59;4997316;28;20033;-77
2022/02/21 01:05:14;;;;;;;2.47;2.05;;;;;;;9.78;52.36;93820.25;5005986;28;20021;-77
2022/02/21 01:07:43;;;;;;;2.08;1.88;;;;;;;9.92;52.31;93836.09;5004533;28;20033;-78
2022/02/21 01:10:09;;;;;;;3.15;2.22;;;;;;;9.89;52.02;93836.69;4999540;28;20121;-78
2022/02/21 01:12:34;;;;;;;8.05;2.95;;;;;;;9.75;51.71;93815.56;5004718;28;20048;-78
2022/02/21 01:14:59;;;;;;;9.77;4.43;;;;;;;9.88;51.95;93835.13;4998885;28;20048;-78
2022/02/21 01:17:27;;;;;;;19.50;5.82;;;;;;;9.71;52.03;93798.69;5001472;28;20045;-77
2022/02/21 01:19:52;;;;;;;8.40;4.75;;;;;;;9.79;51.45;93810.41;4996056;28;20021;-78
2022/02/21 01:22:18;;;;;;;3.38;2.45;;;;;;;9.86;50.93;93826.69;5008950;28;20111;-79
2022/02/21 01:24:44;;;;;;;5.60;2.55;;;;;;;9.69;51.42;93805.38;5001505;28;20221;-77
2022/02/21 01:27:10;;;;;;;3.22;2.40;;;;;;;9.74;51.33;93823.84;4995460;28;20539;-78
2022/02/21 01:29:36;;;;;;;4.32;2.45;;;;;;;9.77;50.64;93812.59;5004611;28;20128;-78
2022/02/21 01:32:02;;;;;;;4.60;2.80;;;;;;;9.65;51.04;93815.06;4991617;28;20074;-78
2022/02/21 01:34:27;;;;;;;6.05;2.92;;;;;;;9.42;50.77;93801.84;4996579;28;20505;-77
2022/02/21 01:36:52;;;;;;;4.93;2.58;;;;;;;9.44;51.21;93820.88;4993233;28;20176;-77
2022/02/21 01:39:19;;;;;;;3.30;2.30;;;;;;;9.21;51.62;93805.31;5003467;28;20386;-77
2022/02/21 01:41:45;;;;;;;3.25;2.38;;;;;;;9.21;51.55;93800.78;4999966;28;20534;-78
2022/02/21 01:44:12;;;;;;;2.85;1.73;;;;;;;9.51;50.85;93831.09;4997208;28;20029;-78
2022/02/21 01:46:39;;;;;;;4.13;2.40;;;;;;;8.92;51.41;93765.97;4978957;28;20065;-77
2022/02/21 01:49:06;;;;;;;3.90;1.92;;;;;;;9.33;51.78;93821.47;4985197;28;20047;-78
2022/02/21 01:51:33;;;;;;;2.33;1.95;;;;;;;9.26;51.94;93813.94;4980101;28;20049;-78
2022/02/21 01:54:00;;;;;;;3.85;2.35;;;;;;;9.23;52.08;93808.47;4979752;28;20635;-77
2022/02/21 01:56:28;;;;;;;2.92;2.20;;;;;;;9.34;51.88;93807.88;4980162;28;20050;-79
2022/02/21 01:58:53;;;;;;;2.45;1.90;;;;;;;9.27;51.74;93785.53;4983001;28;20137;-77
2022/02/21 02:01:19;;;;;;;3.42;2.53;;;;;;;9.35;51.59;93798.84;4980383;28;20044;-77
2022/02/21 02:03:46;;;;;;;2.67;2.30;;;;;;;9.16;51.93;93777.03;4982093;28;20046;-77
2022/02/21 02:06:12;;;;;;;2.72;2.15;;;;;;;9.23;52.02;93780.06;4979176;28;20042;-78
2022/02/21 02:08:37;;;;;;;2.60;1.75;;;;;;;9.10;51.61;93777.44;4983665;28;20053;-77
2022/02/21 02:11:03;;;;;;;3.42;1.98;;;;;;;8.95;51.84;93746.81;4975700;28;20876;-78
2022/02/21 02:13:29;;;;;;;2.92;2.13;;;;;;;9.10;51.58;93774.78;4981303;28;20141;-78
2022/02/21 02:15:55;;;;;;;2.63;2.33;;;;;;;9.05;51.41;93754.47;4980604;28;20032;-77
2022/02/21 02:18:21;;;;;;;3.90;2.30;;;;;;;9.13;51.00;93767.03;4978178;28;20042;-77
2022/02/21 02:20:48;;;;;;;4.60;2.40;;;;;;;8.96;51.47;93766.91;4976541;28;20042;-76
2022/02/21 02:23:14;;;;;;;3.17;2.20;;;;;;;8.93;51.41;93746.31;4975325;28;20068;-77
2022/02/21 02:25:39;;;;;;;3.60;2.47;;;;;;;9.01;51.29;93756.16;4979348;28;20402;-77
2022/02/21 02:28:06;;;;;;;2.95;2.00;;;;;;;8.96;51.40;93769.56;4979170;28;20923;-77
2022/02/21 02:30:32;;;;;;;3.00;1.98;;;;;;;8.81;51.33;93722.19;4984004;28;20026;-78
2022/02/21 02:32:58;;;;;;;2.75;2.13;;;;;;;8.97;51.32;93747.25;4978543;28;20053;-77
2022/02/21 02:35:27;;;;;;;4.05;2.00;;;;;;;8.95;51.37;93749.44;4977950;28;20038;-77
2022/02/21 02:37:52;;;;;;;2.95;1.92;;;;;;;8.81;51.47;93738.13;4976678;28;20022;-78
2022/02/21 02:40:18;;;;;;;2.72;1.92;;;;;;;8.89;51.41;93742.69;4981244;28;20034;-77
2022/02/21 02:42:43;;;;;;;3.63;2.40;;;;;;;9.02;51.36;93739.19;4977933;28;20061;-76
2022/02/21 02:45:09;;;;;;;2.65;1.75;;;;;;;8.79;51.59;93714.56;4979344;28;20042;-77
2022/02/21 02:47:34;;;;;;;3.38;2.25;;;;;;;9.01;51.59;93742.91;4986782;28;20038;-78
2022/02/21 02:49:59;;;;;;;3.10;2.03;;;;;;;8.89;51.72;93735.53;4975951;28;20029;-78
2022/02/21 02:52:25;;;;;;;2.55;1.92;;;;;;;8.98;51.84;93751.47;4979047;28;20144;-78
2022/02/21 02:54:51;;;;;;;2.88;2.05;;;;;;;9.11;51.64;93752.47;4981180;28;20038;-76
2022/02/21 02:57:17;;;;;;;2.38;2.17;;;;;;;8.81;51.75;93738.13;4988948;28;20038;-77
2022/02/21 02:59:42;;;;;;;2.92;2.15;;;;;;;8.99;51.47;93751.19;4987928;28;20038;-77
2022/02/21 03:02:07;;;;;;;3.47;1.95;;;;;;;8.65;52.24;93739.59;4978921;28;20025;-76
2022/02/21 03:04:33;;;;;;;2.20;1.60;;;;;;;8.79;52.55;93764.94;4978668;28;20906;-77
2022/02/21 03:07:00;;;;;;;4.20;2.35;;;;;;;8.74;52.42;93743.88;4969739;28;20050;-76
2022/02/21 03:09:27;;;;;;;3.30;2.15;;;;;;;8.76;52.54;93760.22;4996049;28;20030;-77
2022/02/21 03:11:53;;;;;;;2.30;1.92;;;;;;;8.70;53.11;93764.13;4997979;28;20911;-76
2022/02/21 03:14:20;;;;;;;5.43;2.30;;;;;;;8.82;52.65;93763.53;5001696;28;20034;-77
2022/02/21 03:16:50;;;;;;;3.35;1.95;;;;;;;8.76;52.84;93768.19;5004661;28;20140;-76
2022/02/21 03:19:16;;;;;;;4.10;2.70;;;;;;;8.72;53.35;93755.84;5000830;28;20599;-75
2022/02/21 03:21:42;;;;;;;6.25;1.73;;;;;;;8.64;53.17;93741.44;5000500;28;20045;-76
2022/02/21 03:24:07;;;;;;;3.15;1.85;;;;;;;8.69;53.22;93737.91;4993197;28;20034;-77
2022/02/21 03:26:33;;;;;;;2.67;1.80;;;;;;;8.88;53.16;93754.38;4995876;28;20041;-76
2022/02/21 03:28:58;;;;;;;2.38;1.95;;;;;;;8.89;53.11;93734.75;5001574;28;20688;-76
2022/02/21 03:31:26;;;;;;;3.30;2.10;;;;;;;8.93;52.90;93730.41;4999991;28;20018;-77
2022/02/21 03:33:51;;;;;;;2.60;2.00;;;;;;;8.92;52.84;93723.53;5015073;28;20029;-77
2022/02/21 03:36:17;;;;;;;3.20;2.00;;;;;;;8.94;53.33;93735.41;5000979;28;20053;-77
2022/02/21 03:38:43;;;;;;;4.75;2.03;;;;;;;9.04;53.16;93737.00;5003192;28;20064;-76
2022/02/21 03:41:09;;;;;;;3.75;2.28;;;;;;;8.89;52.89;93694.97;4997796;28;20145;-77
2022/02/21 03:43:34;;;;;;;1.90;1.70;;;;;;;9.14;52.25;93710.25;5002039;28;20490;-77
2022/02/21 03:45:59;;;;;;;3.58;2.08;;;;;;;9.10;52.63;93706.59;4998486;28;20129;-77
2022/02/21 03:48:25;;;;;;;2.70;1.95;;;;;;;9.27;52.52;93730.59;5004692;28;20046;-76
2022/02/21 03:50:51;;;;;;;2.22;1.63;;;;;;;9.06;52.55;93721.56;4999932;28;20575;-76
2022/02/21 03:53:19;;;;;;;2.60;1.98;;;;;;;9.07;52.78;93723.13;4995674;28;20032;-77
2022/02/21 03:55:46;;;;;;;4.80;2.08;;;;;;;9.07;52.91;93732.94;4998175;28;20040;-76
2022/02/21 03:58:12;;;;;;;2.58;1.73;;;;;;;9.05;52.92;93717.34;5015367;28;20567;-77
2022/02/21 04:00:41;;;;;;;2.67;1.90;;;;;;;9.06;53.15;93713.59;5003742;28;20041;-76
2022/02/21 04:03:09;;;;;;;1.80;1.67;;;;;;;9.07;53.23;93717.81;4995816;28;20046;-77
2022/02/21 04:05:34;;;;;;;3.60;2.33;;;;;;;9.07;53.15;93715.16;5005336;28;20389;-76
2022/02/21 04:08:00;;;;;;;3.67;2.67;;;;;;;8.93;53.04;93687.97;4997424;28;21073;-78
2022/02/21 04:10:25;;;;;;;3.58;2.40;;;;;;;8.89;53.06;93676.41;5012717;28;20037;-77
2022/02/21 04:12:51;;;;;;;6.18;2.65;;;;;;;9.05;52.85;93706.72;4989855;28;20038;-77
2022/02/21 04:15:16;;;;;;;5.55;3.05;;;;;;;9.20;52.12;93709.00;5007135;28;20033;-76
2022/02/21 04:17:47;;;;;;;3.05;2.47;;;;;;;9.07;52.52;93701.91;5001582;28;20584;-77
2022/02/21 04:20:15;;;;;;;4.28;3.22;;;;;;;8.92;52.68;93681.88;5004751;28;20026;-77
2022/02/21 04:22:41;;;;;;;3.85;2.80;;;;;;;9.10;52.38;93703.94;4999213;28;20685;-77
2022/02/21 04:25:08;;;;;;;6.10;3.75;;;;;;;7.57;52.23;93466.97;5009550;28;20044;-78
2022/02/21 04:27:44;;;;;;;7.68;4.13;;;;;;;9.06;52.42;93696.91;5000824;28;20437;-76
2022/02/21 04:30:11;;;;;;;4.65;3.20;;;;;;;9.06;52.49;93687.06;4997189;28;20263;-76
2022/02/21 04:32:38;;;;;;;4.88;3.30;;;;;;;9.17;52.08;93688.41;5000072;28;20492;-76
2022/02/21 04:35:05;;;;;;;4.55;3.38;;;;;;;9.20;51.93;93687.78;5003469;28;20821;-78
2022/02/21 04:37:30;;;;;;;6.57;3.53;;;;;;;9.13;52.11;93690.09;5003834;28;20080;-76
2022/02/21 04:39:56;;;;;;;5.50;3.38;;;;;;;9.21;51.48;93672.63;5000018;28;20886;-76
2022/02/21 04:42:21;;;;;;;4.47;3.00;;;;;;;9.13;51.53;93684.81;5003716;28;20438;-78
2022/02/21 04:44:46;;;;;;;5.82;2.67;;;;;;;8.81;51.93;93658.56;5001248;28;20042;-77
2022/02/21 04:47:12;;;;;;;4.55;2.75;;;;;;;8.94;52.01;93678.91;5010216;28;20440;-77
2022/02/21 04:49:37;;;;;;;4.68;3.10;;;;;;;8.75;52.94;93686.31;4993689;28;20083;-77
2022/02/21 04:52:03;;;;;;;4.20;3.13;;;;;;;8.75;52.82;93671.19;5004461;28;20073;-76
2022/02/21 04:54:28;;;;;;;3.78;2.90;;;;;;;7.99;54.74;93659.00;5001819;28;20030;-78
2022/02/21 04:56:53;;;;;;;3.88;3.20;;;;;;;8.67;53.31;93671.13;5012390;28;20079;-77
2022/02/21 04:59:19;;;;;;;4.32;3.17;;;;;;;8.72;52.78;93671.00;5006720;28;20053;-77
2022/02/21 05:01:44;;;;;;;5.78;3.10;;;;;;;8.91;52.06;93668.91;5018898;28;20473;-78
2022/02/21 05:04:10;;;;;;;4.28;3.40;;;;;;;9.10;51.42;93673.97;5000833;28;20398;-77
2022/02/21 05:06:38;;;;;;;3.63;3.00;;;;;;;8.89;51.60;93677.19;4993686;28;20045;-78
2022/02/21 05:09:04;;;;;;;2.97;2.55;;;;;;;8.79;52.25;93677.44;4995004;28;20522;-76
2022/02/21 05:11:29;;;;;;;4.00;3.00;;;;;;;8.72;52.02;93644.47;4999784;28;21098;-76
2022/02/21 05:13:55;;;;;;;4.07;2.80;;;;;;;8.44;52.71;93639.34;5005409;28;20443;-77
2022/02/21 05:16:20;;;;;;;3.50;2.60;;;;;;;8.34;52.55;93622.94;5005555;28;20124;-77
2022/02/21 05:18:45;;;;;;;5.82;3.30;;;;;;;8.42;52.99;93638.88;4999028;28;20488;-76
2022/02/21 05:21:11;;;;;;;5.32;3.03;;;;;;;8.43;53.18;93653.69;5002981;28;20112;-77
2022/02/21 05:23:36;;;;;;;4.53;3.00;;;;;;;8.57;52.77;93658.91;5001827;28;20544;-77
2022/02/21 05:26:03;;;;;;;4.65;2.67;;;;;;;8.40;52.55;93633.09;5005889;28;20049;-76
2022/02/21 05:28:28;;;;;;;3.97;2.30;;;;;;;8.46;53.04;93645.13;5003014;28;20383;-77
2022/02/21 05:30:54;;;;;;;5.32;2.92;;;;;;;8.51;53.05;93660.16;5007761;28;20033;-77
2022/02/21 05:33:20;;;;;;;4.43;2.72;;;;;;;8.66;52.18;93651.03;4997389;28;20034;-77
2022/02/21 05:35:45;;;;;;;5.90;2.45;;;;;;;8.56;52.33;93662.63;4998480;28;20573;-77
2022/02/21 05:38:11;;;;;;;2.90;2.50;;;;;;;8.57;51.87;93635.06;4997909;28;20037;-77
2022/02/21 05:40:37;;;;;;;4.95;3.33;;;;;;;8.64;52.14;93653.97;4994096;28;21022;-76
2022/02/21 05:43:03;;;;;;;5.97;3.85;;;;;;;8.62;51.98;93644.75;5008678;28;20400;-77
2022/02/21 05:45:29;;;;;;;5.43;4.20;;;;;;;8.50;52.25;93654.06;5003474;28;20072;-76
2022/02/21 05:47:54;;;;;;;6.20;4.70;;;;;;;8.49;52.81;93671.03;4998528;28;20041;-77
2022/02/21 05:50:20;;;;;;;10.35;6.55;;;;;;;8.36;52.23;93636.66;4996592;28;20060;-77
2022/02/21 05:52:45;;;;;;;12.43;6.72;;;;;;;8.45;52.34;93640.94;5005303;28;20028;-77
2022/02/21 05:55:10;;;;;;;12.43;6.35;;;;;;;8.59;52.47;93664.69;4997623;28;20771;-77
2022/02/21 05:57:36;;;;;;;11.00;7.25;;;;;;;8.38;52.62;93640.56;4998727;28;20922;-78
2022/02/21 06:00:04;;;;;;;12.45;6.20;;;;;;;8.53;52.85;93661.38;5000214;28;20033;-76
2022/02/21 06:02:29;;;;;;;14.50;8.30;;;;;;;8.04;53.71;93635.81;5009834;28;20041;-77
2022/02/21 06:04:55;;;;;;;13.38;7.53;;;;;;;6.81;57.74;93661.66;5000371;28;20033;-79
2022/02/21 06:07:21;;;;;;;12.65;7.65;;;;;;;7.55;56.66;93649.88;5002374;28;20172;-76
2022/02/21 06:09:46;;;;;;;18.45;9.73;;;;;;;7.04;58.28;93639.56;5003838;28;20042;-76
2022/02/21 06:12:12;;;;;;;15.70;10.95;;;;;;;7.66;56.62;93645.94;4995983;28;20066;-76
2022/02/21 06:14:38;;;;;;;18.80;10.40;;;;;;;7.84;55.96;93636.28;5004779;28;20621;-76
2022/02/21 06:17:04;;;;;;;12.55;7.88;;;;;;;6.95;58.73;93635.22;4998620;28;20018;-76
2022/02/21 06:19:30;;;;;;;16.60;8.52;;;;;;;6.16;62.64;93629.28;4998226;28;20564;-76
2022/02/21 06:21:57;;;;;;;14.43;9.40;;;;;;;6.17;62.79;93601.78;5007000;28;20491;-77
2022/02/21 06:24:24;;;;;;;13.70;8.95;;;;;;;6.34;62.46;93623.16;4997193;28;20069;-77
2022/02/21 06:26:49;;;;;;;19.08;10.98;;;;;;;6.09;64.06;93618.25;5000981;28;20049;-76
2022/02/21 06:29:15;;;;;;;17.88;11.35;;;;;;;6.52;63.03;93617.00;4992384;28;20401;-76
2022/02/21 06:31:40;;;;;;;25.67;16.95;;;;;;;6.28;63.94;93584.69;5003973;28;20037;-76
2022/02/21 06:34:07;;;;;;;25.10;15.15;;;;;;;6.84;62.05;93602.94;4999016;28;20052;-78
2022/02/21 06:36:34;;;;;;;28.77;16.20;;;;;;;6.41;63.58;93611.13;5020192;28;20496;-76
2022/02/21 06:39:00;;;;;;;27.65;16.02;;;;;;;6.13;64.64;93604.19;5011269;28;20585;-76
2022/02/21 06:41:25;;;;;;;25.52;17.10;;;;;;;6.72;62.87;93594.72;5003645;28;20042;-77
2022/02/21 06:43:52;;;;;;;28.85;18.85;;;;;;;6.49;64.83;93607.03;4995602;28;20695;-76
2022/02/21 06:46:18;;;;;;;29.52;17.48;;;;;;;6.20;66.33;93614.41;5005856;28;20468;-76
2022/02/21 06:48:44;;;;;;;29.23;18.48;;;;;;;6.02;66.64;93603.56;5008494;28;20077;-78
2022/02/21 06:51:09;;;;;;;34.00;19.52;;;;;;;5.73;66.49;93566.03;5002517;28;20129;-76
2022/02/21 06:53:34;;;;;;;26.00;16.08;;;;;;;5.61;68.42;93576.28;5002485;28;20040;-76
2022/02/21 06:56:00;;;;;;;23.67;16.63;;;;;;;5.67;69.07;93590.19;4998583;28;20030;-77
2022/02/21 06:58:25;;;;;;;32.25;18.02;;;;;;;5.38;69.05;93563.97;5001422;28;20168;-76
2022/02/21 07:00:51;;;;;;;25.60;16.70;;;;;;;6.10;69.13;93599.50;5000156;28;20622;-76
2022/02/21 07:03:17;;;;;;;23.83;14.52;;;;;;;5.61;69.31;93586.81;5004505;28;20627;-77
2022/02/21 07:05:43;;;;;;;24.20;13.70;;;;;;;6.10;68.90;93598.72;4999420;28;20060;-76
2022/02/21 07:08:09;;;;;;;23.55;13.13;;;;;;;5.76;68.62;93599.00;5010567;28;20030;-76
2022/02/21 07:10:35;;;;;;;21.23;13.20;;;;;;;6.46;66.92;93583.06;4999984;28;20025;-77
2022/02/21 07:13:00;;;;;;;17.65;11.73;;;;;;;6.41;65.46;93568.06;5002179;28;20407;-77
2022/02/21 07:15:25;;;;;;;15.10;9.68;;;;;;;6.85;64.87;93573.56;4998111;28;20617;-77
2022/02/21 07:17:51;;;;;;;17.17;9.23;;;;;;;6.81;64.51;93587.66;4994776;28;21579;-77
2022/02/21 07:20:17;;;;;;;17.42;9.85;;;;;;;6.84;63.15;93573.88;5016280;28;20033;-78
2022/02/21 07:22:46;;;;;;;17.33;9.07;;;;;;;6.93;64.06;93580.03;5005369;28;20041;-76
2022/02/21 07:25:14;;;;;;;18.27;11.18;;;;;;;6.52;62.40;93511.31;5002810;28;20470;-75
2022/02/21 07:27:52;;;;;;;18.73;11.32;;;;;;;7.36;62.45;93571.72;4998636;28;20419;-78
2022/02/21 07:30:21;;;;;;;19.02;11.43;;;;;;;7.46;61.06;93561.69;5004561;28;20034;-76
2022/02/21 07:32:48;;;;;;;27.42;14.07;;;;;;;7.81;60.73;93567.28;5000020;28;20041;-80
2022/02/21 07:35:14;;;;;;;21.08;12.75;;;;;;;8.32;58.88;93561.50;4999156;28;20076;-78
2022/02/21 07:37:39;;;;;;;17.30;9.63;;;;;;;8.46;57.97;93555.00;5002649;28;20638;-78
2022/02/21 07:40:09;;;;;;;17.42;10.30;;;;;;;7.83;58.41;93538.63;5000238;28;20586;-78
2022/02/21 07:42:35;;;;;;;23.77;12.32;;;;;;;7.55;59.99;93559.91;5005848;28;20507;-78
2022/02/21 07:45:00;;;;;;;23.15;13.15;;;;;;;7.43;61.15;93551.72;5008537;28;20496;-77
2022/02/21 07:47:26;;;;;;;18.05;11.82;;;;;;;7.11;60.89;93533.38;5006600;28;20038;-76
2022/02/21 07:49:52;;;;;;;15.80;10.98;;;;;;;6.64;62.54;93519.56;5006549;28;20372;-78
2022/02/21 07:52:17;;;;;;;20.75;12.00;;;;;;;6.79;62.79;93521.91;5002380;28;20033;-77
2022/02/21 07:54:44;;;;;;;18.67;10.88;;;;;;;7.55;61.95;93544.00;5007525;28;20045;-78
2022/02/21 07:57:11;;;;;;;17.70;9.93;;;;;;;8.06;59.60;93526.94;5005467;28;20455;-77
2022/02/21 07:59:36;;;;;;;16.40;10.10;;;;;;;8.24;58.46;93512.69;5012686;28;20049;-78
2022/02/21 08:02:02;;;;;;;23.92;8.98;;;;;;;8.39;57.32;93522.88;5002818;28;20567;-78
2022/02/21 08:04:28;;;;;;;13.48;8.50;;;;;;;7.35;59.92;93475.69;5004856;28;20472;-78
2022/02/21 08:06:53;;;;;;;17.45;9.35;;;;;;;7.07;60.58;93495.38;5001697;28;20037;-78
2022/02/21 08:09:20;;;;;;;23.38;9.82;;;;;;;7.21;61.29;93514.63;5007333;28;20042;-75
2022/02/21 08:11:46;;;;;;;19.27;8.02;;;;;;;6.86;61.89;93501.09;5005530;28;20053;-79
2022/02/21 08:14:11;;;;;;;16.48;7.25;;;;;;;6.70;62.80;93491.94;5005780;28;20033;-77
2022/02/21 08:16:37;;;;;;;15.77;8.55;;;;;;;7.32;60.49;93486.09;5011251;28;20049;-78
2022/02/21 08:19:02;;;;;;;15.85;8.45;;;;;;;7.71;60.10;93489.66;5004424;28;20037;-77
2022/02/21 08:21:28;;;;;;;12.00;7.35;;;;;;;7.81;58.66;93483.34;5019136;28;20041;-78
2022/02/21 08:23:53;;;;;;;9.63;6.82;;;;;;;7.54;59.66;93465.69;5005766;28;20060;-79
2022/02/21 08:26:19;;;;;;;14.48;7.47;;;;;;;7.68;59.12;93468.28;5001520;28;20496;-76
2022/02/21 08:28:44;;;;;;;11.00;6.72;;;;;;;7.77;59.37;93460.44;5010585;28;20022;-78
2022/02/21 08:31:10;;;;;;;13.60;8.63;;;;;;;7.66;60.41;93494.28;5003940;28;20265;-76
2022/02/21 08:33:35;;;;;;;16.50;9.32;;;;;;;6.79;62.43;93471.69;5021682;28;20519;-76
2022/02/21 08:36:00;;;;;;;9.20;7.20;;;;;;;7.51;61.59;93490.13;5003104;28;20041;-78
2022/02/21 08:38:26;;;;;;;10.90;6.93;;;;;;;7.67;60.60;93483.41;5006630;28;20033;-77
2022/02/21 08:40:52;;;;;;;13.02;8.07;;;;;;;7.48;61.78;93477.50;5015552;28;20527;-78
2022/02/21 08:43:17;;;;;;;12.60;7.85;;;;;;;8.21;60.14;93475.44;5000293;28;20553;-76
2022/02/21 08:45:43;;;;;;;12.25;7.47;;;;;;;8.58;58.66;93465.09;5003390;28;20504;-76
2022/02/21 08:48:09;;;;;;;14.65;8.20;;;;;;;8.34;58.99;93464.72;4996164;28;20892;-77
2022/02/21 08:50:34;;;;;;;12.73;6.85;;;;;;;8.24;59.62;93459.69;5000141;28;20576;-75
2022/02/21 08:53:00;;;;;;;11.90;7.88;;;;;;;8.65;57.37;93437.38;4997883;28;20866;-76
2022/02/21 08:55:25;;;;;;;16.98;9.10;;;;;;;8.00;59.13;93427.50;4997143;28;20037;-78
2022/02/21 08:57:51;;;;;;;12.50;6.72;;;;;;;8.16;59.82;93452.50;4998858;28;20038;-76
2022/02/21 09:00:18;;;;;;;12.40;7.82;;;;;;;8.68;57.86;93389.81;5002879;28;20044;-78
2022/02/21 09:02:45;;;;;;;11.30;8.00;;;;;;;9.09;57.71;93431.00;5003999;28;20176;-78
2022/02/21 09:05:12;;;;;;;16.08;8.52;;;;;;;9.21;56.10;93424.00;5015332;28;20485;-79
2022/02/21 09:07:39;;;;;;;20.98;7.95;;;;;;;8.58;57.61;93437.81;5013566;28;20768;-77
2022/02/21 09:10:06;;;;;;;13.55;8.07;;;;;;;8.36;58.10;93446.66;5016151;28;20201;-76
2022/02/21 09:12:31;;;;;;;15.93;8.63;;;;;;;8.33;58.29;93404.09;4994983;28;20037;-78
2022/02/21 09:15:01;;;;;;;10.98;7.60;;;;;;;8.36;58.96;93422.81;5001819;28;20507;-77
2022/02/21 09:17:30;;;;;;;14.65;8.18;;;;;;;8.68;58.17;93436.75;4994905;28;20045;-79
2022/02/21 09:19:56;;;;;;;18.70;9.85;;;;;;;8.52;57.70;93423.94;5001469;28;20028;-78
2022/02/21 09:22:28;;;;;;;15.40;9.50;;;;;;;9.09;57.25;93415.88;5002538;28;20412;-78
2022/02/21 09:24:53;;;;;;;19.13;10.18;;;;;;;8.76;57.15;93383.72;5012481;28;20195;-78
2022/02/21 09:27:19;;;;;;;18.38;9.95;;;;;;;8.59;57.78;93412.88;4998552;28;20034;-79
2022/02/21 09:29:45;;;;;;;17.20;9.73;;;;;;;8.28;57.93;93385.69;5005117;28;20507;-78
2022/02/21 09:32:11;;;;;;;17.30;10.27;;;;;;;8.51;59.10;93411.75;5000949;28;20701;-77
2022/02/21 09:34:36;;;;;;;16.80;9.48;;;;;;;8.55;58.41;93386.22;5005823;28;20495;-76
2022/02/21 09:37:04;;;;;;;16.67;10.85;;;;;;;9.05;56.57;93388.41;4999158;28;20069;-77
2022/02/21 09:39:29;;;;;;;23.63;10.63;;;;;;;9.46;55.98;93393.22;5017275;28;20091;-80
2022/02/21 09:41:55;;;;;;;17.13;10.73;;;;;;;9.72;54.43;93395.81;4998921;28;20041;-77
2022/02/21 09:44:20;;;;;;;15.95;10.77;;;;;;;9.80;54.18;93376.41;4993741;28;20385;-78
2022/02/21 09:46:48;;;;;;;25.13;11.95;;;;;;;9.33;55.76;93352.50;5004572;28;20026;-78
2022/02/21 09:49:15;;;;;;;16.85;10.98;;;;;;;9.01;56.61;93382.16;4997476;28;20249;-78
2022/02/21 09:51:41;;;;;;;23.58;10.90;;;;;;;8.88;56.64;93377.81;5002170;28;20638;-78
2022/02/21 09:54:07;;;;;;;17.95;10.80;;;;;;;9.29;55.96;93362.19;4999680;28;20033;-78
2022/02/21 09:56:36;;;;;;;22.05;11.70;;;;;;;9.38;55.47;93376.22;4993334;28;20072;-76
2022/02/21 09:59:01;;;;;;;17.20;10.20;;;;;;;9.26;55.63;93357.50;4998851;28;20014;-78
2022/02/21 10:01:27;;;;;;;20.55;13.13;;;;;;;8.96;56.28;93351.28;5003981;28;20021;-78
2022/02/21 10:03:57;;;;;;;19.73;11.90;;;;;;;8.72;57.00;93339.59;4998546;28;20926;-78
2022/02/21 10:06:29;;;;;;;22.27;12.20;;;;;;;8.97;57.16;93344.09;5000103;28;20037;-78
2022/02/21 10:09:09;;;;;;;20.40;12.43;;;;;;;9.08;56.08;93344.56;5006850;28;20041;-77
2022/02/21 10:11:35;;;;;;;21.48;10.80;;;;;;;9.06;56.02;93344.09;4993215;28;20098;-78
2022/02/21 10:14:04;;;;;;;16.88;11.20;;;;;;;9.17;55.94;93330.22;5005536;28;20499;-78
2022/02/21 10:16:57;;;;;;;17.98;10.98;;;;;;;9.31;56.08;93316.75;4997881;28;20041;-78
2022/02/21 10:19:35;;;;;;;19.17;11.05;;;;;;;9.39;55.52;93332.66;4995841;28;20088;-78
2022/02/21 10:22:12;;;;;;;22.15;9.80;;;;;;;9.84;54.28;93318.91;5005584;28;20042;-79
2022/02/21 10:24:41;;;;;;;15.80;10.68;;;;;;;9.55;54.58;93306.38;4994395;28;20048;-78
2022/02/21 10:27:24;;;;;;;19.17;11.00;;;;;;;9.52;55.24;93311.56;5004457;28;20539;-77
2022/02/21 10:29:51;;;;;;;17.65;9.25;;;;;;;9.28;54.81;93285.56;5007122;28;20038;-79
2022/02/21 10:32:19;;;;;;;13.02;8.63;;;;;;;9.11;54.75;93265.16;5000794;28;20034;-78
2022/02/21 10:34:45;;;;;;;22.40;10.95;;;;;;;9.34;55.00;93277.09;4995963;28;20037;-77
2022/02/21 10:37:13;;;;;;;13.93;9.40;;;;;;;9.37;55.40;93275.69;4998994;28;20172;-77
2022/02/21 10:39:39;;;;;;;17.65;9.73;;;;;;;9.26;54.93;93256.69;5003373;28;20132;-78
2022/02/21 10:42:08;;;;;;;16.23;9.70;;;;;;;9.36;54.14;93276.78;4996527;28;20034;-77
2022/02/21 10:44:38;;;;;;;17.23;9.13;;;;;;;9.75;53.89;93262.41;4998641;28;20106;-78
2022/02/21 10:47:10;;;;;;;15.18;9.55;;;;;;;9.63;53.90;93252.47;4999675;28;20080;-77
2022/02/21 10:49:43;;;;;;;16.73;9.52;;;;;;;9.74;54.35;93250.22;5002803;28;20030;-79
2022/02/21 10:52:16;;;;;;;15.15;9.23;;;;;;;9.94;53.92;93243.38;4995538;28;20033;-77
2022/02/21 10:54:42;;;;;;;12.30;7.40;;;;;;;10.11;53.77;93233.44;4997583;28;20132;-78
2022/02/21 10:57:11;;;;;;;13.45;8.57;;;;;;;10.35;52.47;93205.44;4996294;28;20049;-79
2022/02/21 10:59:38;;;;;;;15.15;8.60;;;;;;;10.07;52.46;93208.63;4998416;28;20042;-79
2022/02/21 11:02:06;;;;;;;11.25;7.72;;;;;;;9.99;52.77;93214.75;4993329;28;20017;-78
2022/02/21 11:04:33;;;;;;;15.10;9.25;;;;;;;9.73;53.21;93211.50;4997333;28;20165;-77
2022/02/21 11:07:00;;;;;;;16.17;8.57;;;;;;;9.87;52.94;93188.91;5000576;28;20568;-79
2022/02/21 11:09:28;;;;;;;15.93;8.48;;;;;;;9.74;53.25;93200.53;4998175;28;20038;-78
2022/02/21 11:11:57;;;;;;;15.65;8.43;;;;;;;9.90;53.41;93190.13;4999454;28;20061;-76
2022/02/21 11:14:26;;;;;;;21.40;8.30;;;;;;;9.93;51.92;93184.16;5001354;28;20892;-78
2022/02/21 11:16:54;;;;;;;14.77;8.93;;;;;;;9.95;52.49;93166.03;5007695;28;20032;-78
2022/02/21 11:19:20;;;;;;;10.98;7.90;;;;;;;10.29;52.08;93172.97;4997134;28;20986;-78
2022/02/21 11:21:48;;;;;;;15.05;7.95;;;;;;;9.94;52.74;93148.53;5008654;28;20042;-77
2022/02/21 11:24:23;;;;;;;11.18;7.47;;;;;;;10.31;52.16;93155.59;4989596;28;20125;-77
2022/02/21 11:27:06;;;;;;;16.10;7.80;;;;;;;10.30;51.37;93161.22;4993678;28;20038;-78
2022/02/21 11:30:00;;;;;;;14.43;8.55;;;;;;;10.60;51.07;93154.72;4987874;28;20060;-78
2022/02/21 11:32:26;;;;;;;12.13;6.80;;;;;;;10.49;50.47;93123.56;4973436;28;20393;-79
2022/02/21 11:35:17;;;;;;;14.82;7.47;;;;;;;10.81;49.75;93146.66;4975098;28;20032;-79